sensor_id;sensor_type;location;lat;lon;timestamp;P1;durP1;ratioP1;P2;durP2;ratioP2
76051;SDS011;64751;48.708;9.710;2022-12-11T00:01:22;2.22;;;2.03;;
76051;SDS011;64751;48.708;9.710;2022-12-11T00:03:49;2.50;;;2.30;;
76051;SDS011;64751;48.708;9.710;2022-12-11T00:06:19;2.17;;;1.98;;
76051;SDS011;64751;48.708;9.710;2022-12-11T00:08:49;2.45;;;2.25;;
76051;SDS011;64751;48.708;9.710;2022-12-11T00:11:18;2.28;;;2.08;;
76051;SDS011;64751;48.708;9.710;2022-12-11T00:13:46;2.40;;;2.20;;
76051;SDS011;64751;48.708;9.710;2022-12-11T00:16:14;2.55;;;2.35;;
76051;SDS011;64751;48.708;9.710;2022-12-11T00:18:41;2.33;;;2.08;;
76051;SDS011;64751;48.708;9.710;2022-12-11T00:21:10;2.55;;;2.35;;
76051;SDS011;64751;48.708;9.710;2022-12-11T00:23:40;2.50;;;2.30;;
76051;SDS011;64751;48.708;9.710;2022-12-11T00:26:09;2.67;;;2.47;;
76051;SDS011;64751;48.708;9.710;2022-12-11T00:28:39;2.20;;;2.00;;
76051;SDS011;64751;48.708;9.710;2022-12-11T00:31:08;2.53;;;2.33;;
76051;SDS011;64751;48.708;9.710;2022-12-11T00:33:40;2.95;;;2.72;;
76051;SDS011;64751;48.708;9.710;2022-12-11T00:36:11;2.60;;;2.38;;
76051;SDS011;64751;48.708;9.710;2022-12-11T00:38:41;2.40;;;2.20;;
76051;SDS011;64751;48.708;9.710;2022-12-11T00:41:09;2.47;;;2.28;;
76051;SDS011;64751;48.708;9.710;2022-12-11T00:43:37;2.15;;;1.95;;
76051;SDS011;64751;48.708;9.710;2022-12-11T00:46:04;2.20;;;2.00;;
76051;SDS011;64751;48.708;9.710;2022-12-11T00:48:32;2.25;;;2.05;;
76051;SDS011;64751;48.708;9.710;2022-12-11T00:50:59;2.33;;;2.13;;
76051;SDS011;64751;48.708;9.710;2022-12-11T00:53:27;2.30;;;2.10;;
76051;SDS011;64751;48.708;9.710;2022-12-11T00:55:56;2.38;;;2.17;;
76051;SDS011;64751;48.708;9.710;2022-12-11T00:58:24;2.33;;;2.13;;
76051;SDS011;64751;48.708;9.710;2022-12-11T01:00:52;2.55;;;2.35;;
76051;SDS011;64751;48.708;9.710;2022-12-11T01:03:20;2.33;;;2.13;;
76051;SDS011;64751;48.708;9.710;2022-12-11T01:05:51;2.38;;;2.17;;
76051;SDS011;64751;48.708;9.710;2022-12-11T01:08:19;2.42;;;2.22;;
76051;SDS011;64751;48.708;9.710;2022-12-11T01:10:47;2.35;;;2.15;;
76051;SDS011;64751;48.708;9.710;2022-12-11T01:13:15;2.25;;;2.05;;
76051;SDS011;64751;48.708;9.710;2022-12-11T01:15:44;2.42;;;2.22;;
76051;SDS011;64751;48.708;9.710;2022-12-11T01:18:12;2.15;;;1.95;;
76051;SDS011;64751;48.708;9.710;2022-12-11T01:20:41;2.70;;;2.50;;
76051;SDS011;64751;48.708;9.710;2022-12-11T01:23:09;2.33;;;2.13;;
76051;SDS011;64751;48.708;9.710;2022-12-11T01:25:38;2.35;;;2.15;;
76051;SDS011;64751;48.708;9.710;2022-12-11T01:28:06;2.13;;;1.92;;
76051;SDS011;64751;48.708;9.710;2022-12-11T01:30:35;2.25;;;2.05;;
76051;SDS011;64751;48.708;9.710;2022-12-11T01:33:04;2.30;;;2.10;;
76051;SDS011;64751;48.708;9.710;2022-12-11T01:35:31;2.20;;;2.00;;
76051;SDS011;64751;48.708;9.710;2022-12-11T01:37:59;2.28;;;2.08;;
76051;SDS011;64751;48.708;9.710;2022-12-11T01:40:27;2.42;;;2.22;;
76051;SDS011;64751;48.708;9.710;2022-12-11T01:42:55;2.03;;;1.80;;
76051;SDS011;64751;48.708;9.710;2022-12-11T01:45:30;2.08;;;1.88;;
76051;SDS011;64751;48.708;9.710;2022-12-11T01:48:07;2.15;;;1.95;;
76051;SDS011;64751;48.708;9.710;2022-12-11T01:50:38;1.63;;;1.52;;
76051;SDS011;64751;48.708;9.710;2022-12-11T01:53:11;2.17;;;1.77;;
76051;SDS011;64751;48.708;9.710;2022-12-11T01:55:42;1.92;;;1.73;;
76051;SDS011;64751;48.708;9.710;2022-12-11T01:58:12;2.00;;;1.80;;
76051;SDS011;64751;48.708;9.710;2022-12-11T02:00:40;1.70;;;1.60;;
76051;SDS011;64751;48.708;9.710;2022-12-11T02:03:11;2.00;;;1.80;;
76051;SDS011;64751;48.708;9.710;2022-12-11T02:05:39;1.77;;;1.58;;
76051;SDS011;64751;48.708;9.710;2022-12-11T02:08:06;1.73;;;1.45;;
76051;SDS011;64751;48.708;9.710;2022-12-11T02:10:42;1.38;;;1.27;;
76051;SDS011;64751;48.708;9.710;2022-12-11T02:13:20;1.60;;;1.50;;
76051;SDS011;64751;48.708;9.710;2022-12-11T02:15:54;1.90;;;1.60;;
76051;SDS011;64751;48.708;9.710;2022-12-11T02:18:33;1.77;;;1.60;;
76051;SDS011;64751;48.708;9.710;2022-12-11T02:21:05;1.50;;;1.40;;
76051;SDS011;64751;48.708;9.710;2022-12-11T02:23:46;1.60;;;1.50;;
76051;SDS011;64751;48.708;9.710;2022-12-11T02:26:30;1.55;;;1.42;;
76051;SDS011;64751;48.708;9.710;2022-12-11T02:29:16;1.65;;;1.40;;
76051;SDS011;64751;48.708;9.710;2022-12-11T02:31:49;1.55;;;1.45;;
76051;SDS011;64751;48.708;9.710;2022-12-11T02:34:25;1.45;;;1.33;;
76051;SDS011;64751;48.708;9.710;2022-12-11T02:36:59;1.40;;;1.30;;
76051;SDS011;64751;48.708;9.710;2022-12-11T02:39:32;1.45;;;1.30;;
76051;SDS011;64751;48.708;9.710;2022-12-11T02:42:02;1.30;;;1.15;;
76051;SDS011;64751;48.708;9.710;2022-12-11T02:44:32;1.40;;;1.20;;
76051;SDS011;64751;48.708;9.710;2022-12-11T02:47:01;1.33;;;1.23;;
76051;SDS011;64751;48.708;9.710;2022-12-11T02:49:31;1.30;;;1.20;;
76051;SDS011;64751;48.708;9.710;2022-12-11T02:52:00;1.20;;;1.10;;
76051;SDS011;64751;48.708;9.710;2022-12-11T02:54:31;1.25;;;1.15;;
76051;SDS011;64751;48.708;9.710;2022-12-11T02:57:05;0.88;;;0.82;;
76051;SDS011;64751;48.708;9.710;2022-12-11T02:59:39;1.20;;;1.10;;
76051;SDS011;64751;48.708;9.710;2022-12-11T03:04:38;0.57;;;0.57;;
76051;SDS011;64751;48.708;9.710;2022-12-11T03:07:09;0.75;;;0.70;;
76051;SDS011;64751;48.708;9.710;2022-12-11T03:09:41;1.17;;;1.08;;
76051;SDS011;64751;48.708;9.710;2022-12-11T03:12:11;0.75;;;0.75;;
76051;SDS011;64751;48.708;9.710;2022-12-11T03:14:43;1.08;;;0.98;;
76051;SDS011;64751;48.708;9.710;2022-12-11T03:17:11;1.20;;;1.10;;
76051;SDS011;64751;48.708;9.710;2022-12-11T03:19:44;0.98;;;0.90;;
76051;SDS011;64751;48.708;9.710;2022-12-11T03:22:18;1.10;;;1.00;;
76051;SDS011;64751;48.708;9.710;2022-12-11T03:24:49;1.00;;;0.90;;
76051;SDS011;64751;48.708;9.710;2022-12-11T03:27:23;1.30;;;1.20;;
76051;SDS011;64751;48.708;9.710;2022-12-11T03:29:57;0.95;;;0.88;;
76051;SDS011;64751;48.708;9.710;2022-12-11T03:32:30;0.82;;;0.80;;
76051;SDS011;64751;48.708;9.710;2022-12-11T03:35:05;1.10;;;1.00;;
76051;SDS011;64751;48.708;9.710;2022-12-11T03:37:39;0.77;;;0.77;;
76051;SDS011;64751;48.708;9.710;2022-12-11T03:40:09;1.27;;;1.02;;
76051;SDS011;64751;48.708;9.710;2022-12-11T03:42:40;0.77;;;0.70;;
76051;SDS011;64751;48.708;9.710;2022-12-11T03:45:11;1.10;;;0.90;;
76051;SDS011;64751;48.708;9.710;2022-12-11T03:47:40;1.10;;;1.00;;
76051;SDS011;64751;48.708;9.710;2022-12-11T03:50:11;0.80;;;0.80;;
76051;SDS011;64751;48.708;9.710;2022-12-11T03:52:43;1.20;;;1.10;;
76051;SDS011;64751;48.708;9.710;2022-12-11T03:55:13;1.15;;;1.05;;
76051;SDS011;64751;48.708;9.710;2022-12-11T03:57:42;1.02;;;0.93;;
76051;SDS011;64751;48.708;9.710;2022-12-11T04:00:15;1.17;;;1.00;;
76051;SDS011;64751;48.708;9.710;2022-12-11T04:02:44;0.85;;;0.85;;
76051;SDS011;64751;48.708;9.710;2022-12-11T04:05:33;1.10;;;1.00;;
76051;SDS011;64751;48.708;9.710;2022-12-11T04:08:00;1.00;;;0.90;;
76051;SDS011;64751;48.708;9.710;2022-12-11T04:10:28;1.20;;;1.10;;
76051;SDS011;64751;48.708;9.710;2022-12-11T04:12:55;1.10;;;1.00;;
76051;SDS011;64751;48.708;9.710;2022-12-11T04:15:24;1.10;;;1.00;;
76051;SDS011;64751;48.708;9.710;2022-12-11T04:17:51;1.15;;;1.05;;
76051;SDS011;64751;48.708;9.710;2022-12-11T04:20:36;1.30;;;1.20;;
76051;SDS011;64751;48.708;9.710;2022-12-11T04:23:21;1.08;;;0.98;;
76051;SDS011;64751;48.708;9.710;2022-12-11T04:26:06;0.80;;;0.80;;
76051;SDS011;64751;48.708;9.710;2022-12-11T04:28:36;0.88;;;0.88;;
76051;SDS011;64751;48.708;9.710;2022-12-11T04:31:05;1.13;;;1.00;;
76051;SDS011;64751;48.708;9.710;2022-12-11T04:33:33;1.20;;;1.10;;
76051;SDS011;64751;48.708;9.710;2022-12-11T04:36:00;1.40;;;1.30;;
76051;SDS011;64751;48.708;9.710;2022-12-11T04:38:28;1.48;;;1.38;;
76051;SDS011;64751;48.708;9.710;2022-12-11T04:40:58;1.30;;;1.20;;
76051;SDS011;64751;48.708;9.710;2022-12-11T04:43:26;1.40;;;1.30;;
76051;SDS011;64751;48.708;9.710;2022-12-11T04:45:59;2.05;;;1.85;;
76051;SDS011;64751;48.708;9.710;2022-12-11T04:48:29;1.73;;;1.60;;
76051;SDS011;64751;48.708;9.710;2022-12-11T04:50:56;1.65;;;1.45;;
76051;SDS011;64751;48.708;9.710;2022-12-11T04:53:24;1.30;;;1.20;;
76051;SDS011;64751;48.708;9.710;2022-12-11T04:55:52;1.70;;;1.45;;
76051;SDS011;64751;48.708;9.710;2022-12-11T04:58:20;1.60;;;1.40;;
76051;SDS011;64751;48.708;9.710;2022-12-11T05:00:48;1.52;;;1.42;;
76051;SDS011;64751;48.708;9.710;2022-12-11T05:03:16;1.58;;;1.48;;
76051;SDS011;64751;48.708;9.710;2022-12-11T05:05:47;1.98;;;1.77;;
76051;SDS011;64751;48.708;9.710;2022-12-11T05:10:43;1.60;;;1.50;;
76051;SDS011;64751;48.708;9.710;2022-12-11T05:13:11;1.70;;;1.52;;
76051;SDS011;64751;48.708;9.710;2022-12-11T05:15:38;2.00;;;1.80;;
76051;SDS011;64751;48.708;9.710;2022-12-11T05:18:06;1.80;;;1.52;;
76051;SDS011;64751;48.708;9.710;2022-12-11T05:20:33;1.58;;;1.48;;
76051;SDS011;64751;48.708;9.710;2022-12-11T05:23:02;1.70;;;1.60;;
76051;SDS011;64751;48.708;9.710;2022-12-11T05:25:30;2.00;;;1.80;;
76051;SDS011;64751;48.708;9.710;2022-12-11T05:27:58;1.88;;;1.70;;
76051;SDS011;64751;48.708;9.710;2022-12-11T05:30:25;1.83;;;1.70;;
76051;SDS011;64751;48.708;9.710;2022-12-11T05:32:53;1.90;;;1.60;;
76051;SDS011;64751;48.708;9.710;2022-12-11T05:35:21;2.00;;;1.80;;
76051;SDS011;64751;48.708;9.710;2022-12-11T05:37:48;1.98;;;1.40;;
76051;SDS011;64751;48.708;9.710;2022-12-11T05:40:17;1.83;;;1.67;;
76051;SDS011;64751;48.708;9.710;2022-12-11T05:42:44;1.42;;;1.33;;
76051;SDS011;64751;48.708;9.710;2022-12-11T05:45:12;1.90;;;1.70;;
76051;SDS011;64751;48.708;9.710;2022-12-11T05:47:39;1.80;;;1.67;;
76051;SDS011;64751;48.708;9.710;2022-12-11T05:50:07;1.83;;;1.63;;
76051;SDS011;64751;48.708;9.710;2022-12-11T05:52:35;1.85;;;1.60;;
76051;SDS011;64751;48.708;9.710;2022-12-11T05:55:03;1.65;;;1.48;;
76051;SDS011;64751;48.708;9.710;2022-12-11T05:57:32;1.60;;;1.50;;
76051;SDS011;64751;48.708;9.710;2022-12-11T06:00:00;1.83;;;1.65;;
76051;SDS011;64751;48.708;9.710;2022-12-11T06:02:31;1.70;;;1.60;;
76051;SDS011;64751;48.708;9.710;2022-12-11T06:05:00;1.90;;;1.70;;
76051;SDS011;64751;48.708;9.710;2022-12-11T06:07:28;1.73;;;1.50;;
76051;SDS011;64751;48.708;9.710;2022-12-11T06:09:55;2.28;;;1.80;;
76051;SDS011;64751;48.708;9.710;2022-12-11T06:12:23;1.92;;;1.73;;
76051;SDS011;64751;48.708;9.710;2022-12-11T06:14:51;1.73;;;1.52;;
76051;SDS011;64751;48.708;9.710;2022-12-11T06:17:19;1.95;;;1.75;;
76051;SDS011;64751;48.708;9.710;2022-12-11T06:19:46;1.98;;;1.77;;
76051;SDS011;64751;48.708;9.710;2022-12-11T06:22:14;2.00;;;1.80;;
76051;SDS011;64751;48.708;9.710;2022-12-11T06:24:41;1.83;;;1.52;;
76051;SDS011;64751;48.708;9.710;2022-12-11T06:27:09;1.80;;;1.60;;
76051;SDS011;64751;48.708;9.710;2022-12-11T06:29:36;1.77;;;1.63;;
76051;SDS011;64751;48.708;9.710;2022-12-11T06:32:05;1.75;;;1.60;;
76051;SDS011;64751;48.708;9.710;2022-12-11T06:34:32;1.63;;;1.52;;
76051;SDS011;64751;48.708;9.710;2022-12-11T06:37:00;1.90;;;1.70;;
76051;SDS011;64751;48.708;9.710;2022-12-11T06:39:27;1.90;;;1.70;;
76051;SDS011;64751;48.708;9.710;2022-12-11T06:41:55;1.60;;;1.50;;
76051;SDS011;64751;48.708;9.710;2022-12-11T06:44:22;1.80;;;1.60;;
76051;SDS011;64751;48.708;9.710;2022-12-11T06:46:50;1.60;;;1.50;;
76051;SDS011;64751;48.708;9.710;2022-12-11T06:49:19;1.60;;;1.50;;
76051;SDS011;64751;48.708;9.710;2022-12-11T06:51:47;1.83;;;1.70;;
76051;SDS011;64751;48.708;9.710;2022-12-11T06:54:14;1.70;;;1.60;;
76051;SDS011;64751;48.708;9.710;2022-12-11T06:56:42;2.22;;;2.03;;
76051;SDS011;64751;48.708;9.710;2022-12-11T06:59:10;1.77;;;1.50;;
76051;SDS011;64751;48.708;9.710;2022-12-11T07:01:37;1.80;;;1.60;;
76051;SDS011;64751;48.708;9.710;2022-12-11T07:04:05;1.83;;;1.63;;
76051;SDS011;64751;48.708;9.710;2022-12-11T07:06:34;1.70;;;1.60;;
76051;SDS011;64751;48.708;9.710;2022-12-11T07:09:02;2.30;;;2.10;;
76051;SDS011;64751;48.708;9.710;2022-12-11T07:11:30;2.08;;;1.88;;
76051;SDS011;64751;48.708;9.710;2022-12-11T07:13:58;2.30;;;2.10;;
76051;SDS011;64751;48.708;9.710;2022-12-11T07:16:25;2.03;;;1.83;;
76051;SDS011;64751;48.708;9.710;2022-12-11T07:18:53;2.08;;;1.88;;
76051;SDS011;64751;48.708;9.710;2022-12-11T07:21:21;2.13;;;1.92;;
76051;SDS011;64751;48.708;9.710;2022-12-11T07:23:50;2.03;;;1.83;;
76051;SDS011;64751;48.708;9.710;2022-12-11T07:26:18;2.30;;;1.80;;
76051;SDS011;64751;48.708;9.710;2022-12-11T07:28:47;1.63;;;1.50;;
76051;SDS011;64751;48.708;9.710;2022-12-11T07:31:16;2.10;;;1.90;;
76051;SDS011;64751;48.708;9.710;2022-12-11T07:33:45;1.85;;;1.65;;
76051;SDS011;64751;48.708;9.710;2022-12-11T07:36:13;2.03;;;1.83;;
76051;SDS011;64751;48.708;9.710;2022-12-11T07:38:41;1.80;;;1.60;;
76051;SDS011;64751;48.708;9.710;2022-12-11T07:41:11;1.90;;;1.70;;
76051;SDS011;64751;48.708;9.710;2022-12-11T07:43:40;1.85;;;1.65;;
76051;SDS011;64751;48.708;9.710;2022-12-11T07:46:10;1.90;;;1.70;;
76051;SDS011;64751;48.708;9.710;2022-12-11T07:48:39;1.85;;;1.65;;
76051;SDS011;64751;48.708;9.710;2022-12-11T07:51:08;1.65;;;1.55;;
76051;SDS011;64751;48.708;9.710;2022-12-11T07:53:37;2.22;;;2.03;;
76051;SDS011;64751;48.708;9.710;2022-12-11T07:56:05;1.60;;;1.50;;
76051;SDS011;64751;48.708;9.710;2022-12-11T07:58:34;1.70;;;1.60;;
76051;SDS011;64751;48.708;9.710;2022-12-11T08:01:03;2.10;;;1.90;;
76051;SDS011;64751;48.708;9.710;2022-12-11T08:03:31;2.03;;;1.80;;
76051;SDS011;64751;48.708;9.710;2022-12-11T08:05:59;1.95;;;1.73;;
76051;SDS011;64751;48.708;9.710;2022-12-11T08:08:26;2.08;;;1.88;;
76051;SDS011;64751;48.708;9.710;2022-12-11T08:10:54;2.00;;;1.75;;
76051;SDS011;64751;48.708;9.710;2022-12-11T08:13:21;2.08;;;1.88;;
76051;SDS011;64751;48.708;9.710;2022-12-11T08:15:50;2.03;;;1.83;;
76051;SDS011;64751;48.708;9.710;2022-12-11T08:18:18;2.05;;;1.80;;
76051;SDS011;64751;48.708;9.710;2022-12-11T08:20:45;1.80;;;1.52;;
76051;SDS011;64751;48.708;9.710;2022-12-11T08:23:13;2.05;;;1.85;;
76051;SDS011;64751;48.708;9.710;2022-12-11T08:25:40;1.83;;;1.55;;
76051;SDS011;64751;48.708;9.710;2022-12-11T08:28:08;1.90;;;1.67;;
76051;SDS011;64751;48.708;9.710;2022-12-11T08:30:37;1.70;;;1.55;;
76051;SDS011;64751;48.708;9.710;2022-12-11T08:33:06;2.20;;;2.00;;
76051;SDS011;64751;48.708;9.710;2022-12-11T08:35:36;1.98;;;1.75;;
76051;SDS011;64751;48.708;9.710;2022-12-11T08:38:04;2.00;;;1.70;;
76051;SDS011;64751;48.708;9.710;2022-12-11T08:40:32;2.10;;;1.90;;
76051;SDS011;64751;48.708;9.710;2022-12-11T08:42:59;1.60;;;1.50;;
76051;SDS011;64751;48.708;9.710;2022-12-11T08:45:27;2.25;;;1.85;;
76051;SDS011;64751;48.708;9.710;2022-12-11T08:47:54;1.73;;;1.60;;
76051;SDS011;64751;48.708;9.710;2022-12-11T08:50:23;1.63;;;1.52;;
76051;SDS011;64751;48.708;9.710;2022-12-11T08:52:51;1.90;;;1.70;;
76051;SDS011;64751;48.708;9.710;2022-12-11T08:55:19;1.75;;;1.65;;
76051;SDS011;64751;48.708;9.710;2022-12-11T08:57:47;1.90;;;1.63;;
76051;SDS011;64751;48.708;9.710;2022-12-11T09:00:15;2.15;;;1.95;;
76051;SDS011;64751;48.708;9.710;2022-12-11T09:02:46;1.75;;;1.65;;
76051;SDS011;64751;48.708;9.710;2022-12-11T09:05:14;2.08;;;1.70;;
76051;SDS011;64751;48.708;9.710;2022-12-11T09:07:43;2.30;;;1.85;;
76051;SDS011;64751;48.708;9.710;2022-12-11T09:10:10;1.85;;;1.67;;
76051;SDS011;64751;48.708;9.710;2022-12-11T09:12:38;1.75;;;1.65;;
76051;SDS011;64751;48.708;9.710;2022-12-11T09:15:06;1.90;;;1.70;;
76051;SDS011;64751;48.708;9.710;2022-12-11T09:17:34;1.75;;;1.60;;
76051;SDS011;64751;48.708;9.710;2022-12-11T09:20:02;1.92;;;1.75;;
76051;SDS011;64751;48.708;9.710;2022-12-11T09:22:30;1.65;;;1.55;;
76051;SDS011;64751;48.708;9.710;2022-12-11T09:24:59;2.05;;;1.85;;
76051;SDS011;64751;48.708;9.710;2022-12-11T09:27:27;1.88;;;1.70;;
76051;SDS011;64751;48.708;9.710;2022-12-11T09:29:55;1.65;;;1.55;;
76051;SDS011;64751;48.708;9.710;2022-12-11T09:32:22;2.05;;;1.85;;
76051;SDS011;64751;48.708;9.710;2022-12-11T09:34:50;2.00;;;1.80;;
76051;SDS011;64751;48.708;9.710;2022-12-11T09:37:18;2.03;;;1.85;;
76051;SDS011;64751;48.708;9.710;2022-12-11T09:39:46;2.03;;;1.83;;
76051;SDS011;64751;48.708;9.710;2022-12-11T09:42:15;1.85;;;1.65;;
76051;SDS011;64751;48.708;9.710;2022-12-11T09:44:48;2.20;;;2.00;;
76051;SDS011;64751;48.708;9.710;2022-12-11T09:47:19;2.15;;;1.95;;
76051;SDS011;64751;48.708;9.710;2022-12-11T09:49:55;1.98;;;1.77;;
76051;SDS011;64751;48.708;9.710;2022-12-11T09:52:31;2.03;;;1.83;;
76051;SDS011;64751;48.708;9.710;2022-12-11T09:55:03;2.00;;;1.50;;
76051;SDS011;64751;48.708;9.710;2022-12-11T09:57:42;1.70;;;1.60;;
76051;SDS011;64751;48.708;9.710;2022-12-11T10:00:18;1.60;;;1.50;;
76051;SDS011;64751;48.708;9.710;2022-12-11T10:03:03;1.63;;;1.52;;
76051;SDS011;64751;48.708;9.710;2022-12-11T10:05:46;1.48;;;1.35;;
76051;SDS011;64751;48.708;9.710;2022-12-11T10:08:22;1.92;;;1.65;;
76051;SDS011;64751;48.708;9.710;2022-12-11T10:11:04;1.65;;;1.52;;
76051;SDS011;64751;48.708;9.710;2022-12-11T10:13:51;2.20;;;1.80;;
76051;SDS011;64751;48.708;9.710;2022-12-11T10:16:29;1.70;;;1.50;;
76051;SDS011;64751;48.708;9.710;2022-12-11T10:19:00;1.63;;;1.50;;
76051;SDS011;64751;48.708;9.710;2022-12-11T10:21:28;1.85;;;1.65;;
76051;SDS011;64751;48.708;9.710;2022-12-11T10:24:04;1.70;;;1.58;;
76051;SDS011;64751;48.708;9.710;2022-12-11T10:26:40;1.77;;;1.67;;
76051;SDS011;64751;48.708;9.710;2022-12-11T10:29:11;1.90;;;1.50;;
76051;SDS011;64751;48.708;9.710;2022-12-11T10:31:43;1.50;;;1.40;;
76051;SDS011;64751;48.708;9.710;2022-12-11T10:34:18;1.75;;;1.55;;
76051;SDS011;64751;48.708;9.710;2022-12-11T10:36:53;1.75;;;1.50;;
76051;SDS011;64751;48.708;9.710;2022-12-11T10:39:21;1.73;;;1.63;;
76051;SDS011;64751;48.708;9.710;2022-12-11T10:41:50;1.80;;;1.60;;
76051;SDS011;64751;48.708;9.710;2022-12-11T10:44:21;2.00;;;1.80;;
76051;SDS011;64751;48.708;9.710;2022-12-11T10:49:29;1.65;;;1.55;;
76051;SDS011;64751;48.708;9.710;2022-12-11T10:51:58;1.92;;;1.73;;
76051;SDS011;64751;48.708;9.710;2022-12-11T10:54:31;1.58;;;1.40;;
76051;SDS011;64751;48.708;9.710;2022-12-11T10:57:03;1.70;;;1.60;;
76051;SDS011;64751;48.708;9.710;2022-12-11T10:59:34;1.90;;;1.70;;
76051;SDS011;64751;48.708;9.710;2022-12-11T11:02:05;1.55;;;1.45;;
76051;SDS011;64751;48.708;9.710;2022-12-11T11:04:44;1.75;;;1.50;;
76051;SDS011;64751;48.708;9.710;2022-12-11T11:07:12;1.67;;;1.58;;
76051;SDS011;64751;48.708;9.710;2022-12-11T11:09:41;1.45;;;1.35;;
76051;SDS011;64751;48.708;9.710;2022-12-11T11:12:19;1.60;;;1.50;;
76051;SDS011;64751;48.708;9.710;2022-12-11T11:15:00;1.67;;;1.50;;
76051;SDS011;64751;48.708;9.710;2022-12-11T11:17:30;1.50;;;1.40;;
76051;SDS011;64751;48.708;9.710;2022-12-11T11:20:11;1.77;;;1.48;;
76051;SDS011;64751;48.708;9.710;2022-12-11T11:22:43;1.35;;;1.25;;
76051;SDS011;64751;48.708;9.710;2022-12-11T11:25:16;2.13;;;1.55;;
76051;SDS011;64751;48.708;9.710;2022-12-11T11:27:48;1.70;;;1.50;;
76051;SDS011;64751;48.708;9.710;2022-12-11T11:30:20;1.65;;;1.50;;
76051;SDS011;64751;48.708;9.710;2022-12-11T11:32:49;1.80;;;1.50;;
76051;SDS011;64751;48.708;9.710;2022-12-11T11:35:20;1.50;;;1.35;;
76051;SDS011;64751;48.708;9.710;2022-12-11T11:37:55;1.70;;;1.50;;
76051;SDS011;64751;48.708;9.710;2022-12-11T11:40:27;1.80;;;1.40;;
76051;SDS011;64751;48.708;9.710;2022-12-11T11:43:00;1.40;;;1.17;;
76051;SDS011;64751;48.708;9.710;2022-12-11T11:45:36;1.83;;;1.60;;
76051;SDS011;64751;48.708;9.710;2022-12-11T11:48:13;1.50;;;1.40;;
76051;SDS011;64751;48.708;9.710;2022-12-11T11:50:51;1.75;;;1.65;;
76051;SDS011;64751;48.708;9.710;2022-12-11T11:53:21;1.70;;;1.50;;
76051;SDS011;64751;48.708;9.710;2022-12-11T11:55:57;1.40;;;1.30;;
76051;SDS011;64751;48.708;9.710;2022-12-11T11:58:31;1.83;;;1.67;;
76051;SDS011;64751;48.708;9.710;2022-12-11T12:01:09;1.73;;;1.52;;
76051;SDS011;64751;48.708;9.710;2022-12-11T12:03:41;1.45;;;1.33;;
76051;SDS011;64751;48.708;9.710;2022-12-11T12:06:09;1.63;;;1.42;;
76051;SDS011;64751;48.708;9.710;2022-12-11T12:08:56;1.75;;;1.45;;
76051;SDS011;64751;48.708;9.710;2022-12-11T12:11:35;1.65;;;1.52;;
76051;SDS011;64751;48.708;9.710;2022-12-11T12:14:12;1.48;;;1.35;;
76051;SDS011;64751;48.708;9.710;2022-12-11T12:16:49;1.60;;;1.50;;
76051;SDS011;64751;48.708;9.710;2022-12-11T12:19:32;1.73;;;1.52;;
76051;SDS011;64751;48.708;9.710;2022-12-11T12:22:13;1.42;;;1.25;;
76051;SDS011;64751;48.708;9.710;2022-12-11T12:24:56;1.35;;;1.25;;
76051;SDS011;64751;48.708;9.710;2022-12-11T12:27:30;1.48;;;1.35;;
76051;SDS011;64751;48.708;9.710;2022-12-11T12:30:07;1.90;;;1.52;;
76051;SDS011;64751;48.708;9.710;2022-12-11T12:32:42;1.80;;;1.60;;
76051;SDS011;64751;48.708;9.710;2022-12-11T12:35:26;1.50;;;1.40;;
76051;SDS011;64751;48.708;9.710;2022-12-11T12:38:02;1.65;;;1.50;;
76051;SDS011;64751;48.708;9.710;2022-12-11T12:40:38;1.80;;;1.55;;
76051;SDS011;64751;48.708;9.710;2022-12-11T12:43:23;1.73;;;1.55;;
76051;SDS011;64751;48.708;9.710;2022-12-11T12:46:09;1.77;;;1.65;;
76051;SDS011;64751;48.708;9.710;2022-12-11T12:48:48;2.20;;;1.92;;
76051;SDS011;64751;48.708;9.710;2022-12-11T12:51:17;1.98;;;1.67;;
76051;SDS011;64751;48.708;9.710;2022-12-11T12:53:46;1.95;;;1.75;;
76051;SDS011;64751;48.708;9.710;2022-12-11T12:56:16;1.92;;;1.75;;
76051;SDS011;64751;48.708;9.710;2022-12-11T12:58:44;1.75;;;1.63;;
76051;SDS011;64751;48.708;9.710;2022-12-11T13:01:14;1.70;;;1.50;;
76051;SDS011;64751;48.708;9.710;2022-12-11T13:03:50;1.50;;;1.30;;
76051;SDS011;64751;48.708;9.710;2022-12-11T13:06:28;1.50;;;1.40;;
76051;SDS011;64751;48.708;9.710;2022-12-11T13:09:08;1.38;;;1.27;;
76051;SDS011;64751;48.708;9.710;2022-12-11T13:11:39;1.10;;;1.00;;
76051;SDS011;64751;48.708;9.710;2022-12-11T13:14:20;1.35;;;1.25;;
76051;SDS011;64751;48.708;9.710;2022-12-11T13:17:03;1.40;;;1.30;;
76051;SDS011;64751;48.708;9.710;2022-12-11T13:19:34;1.60;;;1.35;;
76051;SDS011;64751;48.708;9.710;2022-12-11T13:22:03;1.50;;;1.40;;
76051;SDS011;64751;48.708;9.710;2022-12-11T13:24:46;1.65;;;1.40;;
76051;SDS011;64751;48.708;9.710;2022-12-11T13:27:24;1.58;;;1.48;;
76051;SDS011;64751;48.708;9.710;2022-12-11T13:30:03;1.33;;;1.23;;
76051;SDS011;64751;48.708;9.710;2022-12-11T13:32:32;1.42;;;1.33;;
76051;SDS011;64751;48.708;9.710;2022-12-11T13:35:04;1.45;;;1.35;;
76051;SDS011;64751;48.708;9.710;2022-12-11T13:37:34;1.67;;;1.30;;
76051;SDS011;64751;48.708;9.710;2022-12-11T13:40:08;1.55;;;1.45;;
76051;SDS011;64751;48.708;9.710;2022-12-11T13:42:46;1.67;;;1.35;;
76051;SDS011;64751;48.708;9.710;2022-12-11T13:45:17;1.52;;;1.42;;
76051;SDS011;64751;48.708;9.710;2022-12-11T13:47:47;1.60;;;1.33;;
76051;SDS011;64751;48.708;9.710;2022-12-11T13:50:18;1.60;;;1.50;;
76051;SDS011;64751;48.708;9.710;2022-12-11T13:52:51;1.65;;;1.30;;
76051;SDS011;64751;48.708;9.710;2022-12-11T13:55:21;1.67;;;1.45;;
76051;SDS011;64751;48.708;9.710;2022-12-11T13:57:51;1.52;;;1.38;;
76051;SDS011;64751;48.708;9.710;2022-12-11T14:00:19;1.65;;;1.55;;
76051;SDS011;64751;48.708;9.710;2022-12-11T14:02:49;1.50;;;1.40;;
76051;SDS011;64751;48.708;9.710;2022-12-11T14:05:20;1.67;;;1.50;;
76051;SDS011;64751;48.708;9.710;2022-12-11T14:07:49;1.83;;;1.65;;
76051;SDS011;64751;48.708;9.710;2022-12-11T14:10:21;1.58;;;1.33;;
76051;SDS011;64751;48.708;9.710;2022-12-11T14:12:52;1.40;;;1.23;;
76051;SDS011;64751;48.708;9.710;2022-12-11T14:15:22;1.85;;;1.65;;
76051;SDS011;64751;48.708;9.710;2022-12-11T14:17:49;1.45;;;1.35;;
76051;SDS011;64751;48.708;9.710;2022-12-11T14:20:18;1.75;;;1.63;;
76051;SDS011;64751;48.708;9.710;2022-12-11T14:22:48;1.92;;;1.73;;
76051;SDS011;64751;48.708;9.710;2022-12-11T14:25:19;1.55;;;1.45;;
76051;SDS011;64751;48.708;9.710;2022-12-11T14:27:49;1.80;;;1.63;;
76051;SDS011;64751;48.708;9.710;2022-12-11T14:30:21;2.03;;;1.83;;
76051;SDS011;64751;48.708;9.710;2022-12-11T14:32:52;2.08;;;1.48;;
76051;SDS011;64751;48.708;9.710;2022-12-11T14:35:25;1.48;;;1.38;;
76051;SDS011;64751;48.708;9.710;2022-12-11T14:37:55;1.45;;;1.35;;
76051;SDS011;64751;48.708;9.710;2022-12-11T14:40:27;1.70;;;1.48;;
76051;SDS011;64751;48.708;9.710;2022-12-11T14:43:01;1.70;;;1.60;;
76051;SDS011;64751;48.708;9.710;2022-12-11T14:45:34;1.35;;;1.25;;
76051;SDS011;64751;48.708;9.710;2022-12-11T14:48:06;1.70;;;1.60;;
76051;SDS011;64751;48.708;9.710;2022-12-11T14:50:41;1.85;;;1.70;;
76051;SDS011;64751;48.708;9.710;2022-12-11T14:53:12;1.73;;;1.55;;
76051;SDS011;64751;48.708;9.710;2022-12-11T14:55:45;1.80;;;1.60;;
76051;SDS011;64751;48.708;9.710;2022-12-11T14:58:15;2.00;;;1.80;;
76051;SDS011;64751;48.708;9.710;2022-12-11T15:00:54;2.30;;;1.77;;
76051;SDS011;64751;48.708;9.710;2022-12-11T15:03:29;2.40;;;1.88;;
76051;SDS011;64751;48.708;9.710;2022-12-11T15:06:00;1.75;;;1.65;;
76051;SDS011;64751;48.708;9.710;2022-12-11T15:08:30;1.92;;;1.80;;
76051;SDS011;64751;48.708;9.710;2022-12-11T15:11:03;2.20;;;2.00;;
76051;SDS011;64751;48.708;9.710;2022-12-11T15:13:33;1.73;;;1.58;;
76051;SDS011;64751;48.708;9.710;2022-12-11T15:16:02;1.98;;;1.77;;
76051;SDS011;64751;48.708;9.710;2022-12-11T15:18:33;2.10;;;1.80;;